createdAt,value
2023-05-13T06:45:30.322Z,100.00
2023-05-13T06:47:57.925Z,100.00
2023-05-13T06:50:25.548Z,100.00
2023-05-13T06:52:53.056Z,100.00
2023-05-13T06:55:20.642Z,100.00
2023-05-13T06:57:48.367Z,100.00
2023-05-13T07:00:16.873Z,100.00
2023-05-13T07:02:45.797Z,100.00
2023-05-13T07:05:13.611Z,100.00
2023-05-13T07:07:42.229Z,100.00
2023-05-13T07:10:10.649Z,100.00
2023-05-13T07:12:38.289Z,100.00
2023-05-13T07:15:07.017Z,100.00
2023-05-13T07:17:34.765Z,100.00
2023-05-13T07:20:03.786Z,100.00
2023-05-13T07:22:31.892Z,100.00
2023-05-13T07:24:59.568Z,100.00
2023-05-13T07:27:27.260Z,100.00
2023-05-13T07:29:55.255Z,100.00
2023-05-13T07:32:22.788Z,100.00
2023-05-13T07:34:50.345Z,100.00
2023-05-13T07:37:19.270Z,100.00
2023-05-13T07:39:47.074Z,100.00
2023-05-13T07:42:15.264Z,100.00
2023-05-13T07:44:42.797Z,100.00
2023-05-13T07:47:10.410Z,100.00
2023-05-13T07:49:38.012Z,100.00
2023-05-13T07:52:05.968Z,100.00
2023-05-13T07:54:34.876Z,100.00
2023-05-13T07:57:02.774Z,100.00
2023-05-13T07:59:30.471Z,100.00
2023-05-13T08:01:58.010Z,100.00
2023-05-13T08:04:26.023Z,100.00
2023-05-13T08:06:53.771Z,100.00
2023-05-13T08:09:21.383Z,100.00
2023-05-13T08:11:50.289Z,100.00
2023-05-13T08:14:17.771Z,100.00
2023-05-13T08:16:45.424Z,100.00
2023-05-13T08:19:14.677Z,100.00
2023-05-13T08:21:42.269Z,100.00
2023-05-13T08:24:09.856Z,100.00
2023-05-13T08:26:38.205Z,100.00
2023-05-13T08:29:08.588Z,100.00
2023-05-13T08:31:36.180Z,100.00
2023-05-13T08:34:03.701Z,100.00
2023-05-13T08:36:31.207Z,100.00
2023-05-13T08:38:58.752Z,100.00
2023-05-13T08:41:26.272Z,100.00
2023-05-13T08:43:55.433Z,100.00
2023-05-13T08:46:25.704Z,100.00
2023-05-13T08:48:53.368Z,100.00
2023-05-13T08:51:20.872Z,100.00
2023-05-13T08:53:48.952Z,100.00
2023-05-13T08:56:16.627Z,100.00
2023-05-13T08:58:44.127Z,100.00
2023-05-13T09:01:12.060Z,100.00
2023-05-13T09:03:48.652Z,100.00
2023-05-13T09:06:16.396Z,100.00
2023-05-13T09:08:44.084Z,100.00
2023-05-13T09:11:11.590Z,100.00
2023-05-13T09:13:39.154Z,100.00
2023-05-13T09:16:07.261Z,100.00
2023-05-13T09:18:35.107Z,100.00
2023-05-13T09:21:24.641Z,100.00
2023-05-13T09:23:57.275Z,100.00
2023-05-13T09:26:28.487Z,100.00
2023-05-13T09:29:15.513Z,100.00
2023-05-13T09:31:43.310Z,100.00
2023-05-13T09:34:10.928Z,100.00
2023-05-13T09:36:39.852Z,100.00
2023-05-13T09:39:07.438Z,100.00
2023-05-13T09:41:35.908Z,100.00
2023-05-13T09:44:04.132Z,100.00
2023-05-13T09:46:32.458Z,100.00
2023-05-13T09:49:00.336Z,100.00
2023-05-13T09:51:28.246Z,100.00
2023-05-13T09:54:03.991Z,100.00
2023-05-13T09:56:32.081Z,100.00
2023-05-13T09:58:59.784Z,100.00
2023-05-13T10:01:28.513Z,100.00
2023-05-13T10:03:56.903Z,100.00
2023-05-13T10:06:26.475Z,100.00
2023-05-13T10:08:55.116Z,100.00
2023-05-13T10:11:24.674Z,100.00
2023-05-13T10:13:58.223Z,100.00
2023-05-13T10:16:26.388Z,100.00
2023-05-13T10:18:54.108Z,100.00
2023-05-13T10:21:21.747Z,100.00
2023-05-13T10:23:51.876Z,100.00
2023-05-13T10:26:20.908Z,100.00
2023-05-13T10:28:50.380Z,100.00
2023-05-13T10:31:18.508Z,100.00
2023-05-13T10:33:46.671Z,100.00
2023-05-13T10:36:51.653Z,100.00
2023-05-13T10:39:28.895Z,100.00
2023-05-13T10:42:40.281Z,100.00
2023-05-13T10:45:10.280Z,100.00
2023-05-13T10:47:40.202Z,100.00
2023-05-13T10:50:09.614Z,100.00
2023-05-13T10:52:44.587Z,100.00
2023-05-13T10:55:19.238Z,100.00
2023-05-13T10:58:09.414Z,100.00
2023-05-13T11:00:39.208Z,100.00
2023-05-13T11:03:11.118Z,100.00
2023-05-13T11:05:40.645Z,100.00
2023-05-13T11:08:08.287Z,100.00
2023-05-13T11:10:36.342Z,100.00
2023-05-13T11:13:22.427Z,100.00
2023-05-13T11:15:52.247Z,100.00
2023-05-13T11:18:20.179Z,100.00
2023-05-13T11:20:52.464Z,100.00
2023-05-13T11:23:20.951Z,100.00
2023-05-13T11:25:48.962Z,100.00
2023-05-13T11:28:18.432Z,100.00
2023-05-13T11:30:56.397Z,100.00
2023-05-13T11:33:24.145Z,96.32
2023-05-13T11:35:56.051Z,97.05
2023-05-13T11:38:24.891Z,96.75
2023-05-13T11:40:53.300Z,96.81
2023-05-13T11:43:22.494Z,98.26
2023-05-13T11:45:50.461Z,92.34
2023-05-13T11:48:23.538Z,93.58
2023-05-13T11:50:52.142Z,92.69
2023-05-13T11:53:23.299Z,92.44
2023-05-13T11:55:51.598Z,97.04
2023-05-13T11:58:19.271Z,96.33
2023-05-13T12:00:46.839Z,93.56
2023-05-13T12:03:16.316Z,87.88
2023-05-13T12:05:45.988Z,86.47
2023-05-13T12:08:13.529Z,89.40
2023-05-13T12:10:43.826Z,93.59
2023-05-13T12:13:11.503Z,99.17
2023-05-13T12:15:39.266Z,96.64
2023-05-13T12:18:07.423Z,94.88
2023-05-13T12:20:34.976Z,90.50
2023-05-13T12:23:04.552Z,90.32
2023-05-13T12:25:43.413Z,93.62
2023-05-13T12:28:13.263Z,98.04
2023-05-13T12:30:42.428Z,90.29
2023-05-13T12:33:14.595Z,96.29
2023-05-13T12:35:42.349Z,93.78
2023-05-13T12:38:16.117Z,85.04
2023-05-13T12:40:43.741Z,85.77
2023-05-13T12:43:12.391Z,86.04
2023-05-13T12:45:44.003Z,91.50
2023-05-13T12:48:12.466Z,94.95
2023-05-13T12:50:40.122Z,91.28
2023-05-13T12:53:07.673Z,93.24
2023-05-13T12:55:39.802Z,99.84
2023-05-13T12:58:10.857Z,94.29
2023-05-13T13:00:38.626Z,95.19
2023-05-13T13:03:06.396Z,98.65
2023-05-13T13:05:34.108Z,100.00
2023-05-13T13:08:02.347Z,100.00
2023-05-13T13:10:29.964Z,100.00
2023-05-13T13:12:58.814Z,100.00
2023-05-13T13:15:26.342Z,100.00
2023-05-13T13:17:53.933Z,100.00
2023-05-13T13:20:22.338Z,100.00
2023-05-13T13:22:49.869Z,100.00
2023-05-13T13:25:17.406Z,100.00
2023-05-13T13:27:45.177Z,100.00
2023-05-13T13:30:15.420Z,100.00
2023-05-13T13:32:42.988Z,100.00
2023-05-13T13:35:11.234Z,100.00
2023-05-13T13:37:38.790Z,100.00
2023-05-13T13:40:07.455Z,100.00
2023-05-13T13:42:44.109Z,100.00
2023-05-13T13:45:14.360Z,100.00
2023-05-13T13:47:42.271Z,100.00
2023-05-13T13:50:10.698Z,100.00
2023-05-13T13:52:38.182Z,100.00
2023-05-13T13:55:06.681Z,100.00
2023-05-13T13:57:34.232Z,100.00
2023-05-13T14:00:01.792Z,100.00
2023-05-13T14:02:30.814Z,100.00
2023-05-13T14:04:58.513Z,100.00
2023-05-13T14:07:26.234Z,100.00
2023-05-13T14:09:53.706Z,100.00
2023-05-13T14:12:21.251Z,100.00
2023-05-13T14:14:48.782Z,100.00
2023-05-13T14:17:16.267Z,100.00
2023-05-13T14:19:45.101Z,100.00
2023-05-13T14:22:12.765Z,100.00
2023-05-13T14:24:40.570Z,100.00
2023-05-13T14:27:08.055Z,100.00
2023-05-13T14:29:35.596Z,100.00
2023-05-13T14:32:03.786Z,100.00
2023-05-13T14:34:31.398Z,100.00
2023-05-13T14:37:00.271Z,100.00
2023-05-13T14:39:28.096Z,100.00
2023-05-13T14:41:55.899Z,98.73
2023-05-13T14:44:23.403Z,98.82
2023-05-13T14:46:51.231Z,96.75
2023-05-13T14:49:18.739Z,100.00
2023-05-13T14:51:46.290Z,100.00
2023-05-13T14:54:15.111Z,100.00
2023-05-13T14:56:42.687Z,100.00
2023-05-13T14:59:10.270Z,100.00
2023-05-13T15:01:38.335Z,100.00
2023-05-13T15:04:06.323Z,98.25
2023-05-13T15:06:33.934Z,100.00
2023-05-13T15:09:01.467Z,100.00
2023-05-13T15:11:30.874Z,100.00
2023-05-13T15:13:58.420Z,100.00
2023-05-13T15:16:26.068Z,100.00
2023-05-13T15:18:53.606Z,100.00
2023-05-13T15:21:21.194Z,100.00
2023-05-13T15:23:48.724Z,100.00
2023-05-13T15:26:16.205Z,100.00
2023-05-13T15:28:45.048Z,100.00
2023-05-13T15:31:12.580Z,100.00
2023-05-13T15:33:40.112Z,100.00
2023-05-13T15:36:09.802Z,100.00
2023-05-13T15:38:37.372Z,100.00
2023-05-13T15:41:05.188Z,100.00
2023-05-13T15:43:34.097Z,100.00
2023-05-13T15:46:03.100Z,100.00
2023-05-13T15:48:30.875Z,100.00
2023-05-13T15:50:58.424Z,100.00
2023-05-13T15:53:25.982Z,100.00
2023-05-13T15:55:53.511Z,100.00
2023-05-13T15:58:21.437Z,100.00
2023-05-13T16:00:48.938Z,100.00
2023-05-13T16:03:18.092Z,100.00
2023-05-13T16:05:45.851Z,100.00
2023-05-13T16:08:13.408Z,100.00
2023-05-13T16:10:41.068Z,100.00
2023-05-13T16:13:08.637Z,100.00
2023-05-13T16:15:36.167Z,100.00
2023-05-13T16:18:03.802Z,100.00
2023-05-13T16:20:32.728Z,100.00
2023-05-13T16:23:00.264Z,100.00
2023-05-13T16:25:27.751Z,100.00
2023-05-13T16:27:56.519Z,100.00
2023-05-13T16:30:24.359Z,100.00
2023-05-13T16:32:54.289Z,100.00
2023-05-13T16:35:22.098Z,100.00
2023-05-13T16:37:51.358Z,100.00
2023-05-13T16:40:19.044Z,100.00
2023-05-13T16:42:47.284Z,100.00
2023-05-13T16:45:15.083Z,100.00
2023-05-13T16:47:42.632Z,100.00
2023-05-13T16:50:10.882Z,100.00
2023-05-13T16:52:38.496Z,100.00
2023-05-13T16:55:08.324Z,100.00
2023-05-13T16:57:35.858Z,100.00
2023-05-13T17:00:03.548Z,100.00
2023-05-13T17:02:31.362Z,100.00
2023-05-13T17:04:58.927Z,100.00
2023-05-13T17:07:26.417Z,100.00
2023-05-13T17:09:54.151Z,100.00
2023-05-13T17:12:23.156Z,100.00
2023-05-13T17:14:50.698Z,100.00
2023-05-13T17:17:18.261Z,100.00
2023-05-13T17:19:45.894Z,100.00
2023-05-13T17:22:13.397Z,100.00
2023-05-13T17:24:41.121Z,100.00
2023-05-13T17:27:08.898Z,100.00
2023-05-13T17:29:37.759Z,100.00
2023-05-13T17:32:05.862Z,100.00
2023-05-13T17:34:33.354Z,100.00
2023-05-13T17:37:00.861Z,100.00
2023-05-13T17:39:28.413Z,100.00
2023-05-13T17:41:55.944Z,100.00
2023-05-13T17:44:23.927Z,100.00
2023-05-13T17:46:52.962Z,100.00
2023-05-13T17:49:20.725Z,100.00
2023-05-13T17:51:48.275Z,100.00
2023-05-13T17:54:15.776Z,100.00
2023-05-13T17:56:43.276Z,100.00
2023-05-13T17:59:11.708Z,100.00
2023-05-13T18:01:39.219Z,100.00
2023-05-13T18:04:08.173Z,100.00
2023-05-13T18:06:35.644Z,100.00
2023-05-13T18:09:03.452Z,100.00
2023-05-13T18:11:31.577Z,100.00
2023-05-13T18:13:59.133Z,100.00
2023-05-13T18:16:26.655Z,100.00
2023-05-13T18:18:57.274Z,100.00
2023-05-13T18:21:28.844Z,100.00
2023-05-13T18:23:56.983Z,100.00
2023-05-13T18:26:24.498Z,100.00
2023-05-13T18:28:52.028Z,100.00
2023-05-13T18:31:19.619Z,100.00
2023-05-13T18:33:47.204Z,100.00
2023-05-13T18:36:14.712Z,100.00
2023-05-13T18:38:45.831Z,100.00
2023-05-13T18:41:13.369Z,100.00
2023-05-13T18:43:40.874Z,100.00
2023-05-13T18:46:08.743Z,100.00
2023-05-13T18:48:36.367Z,100.00
2023-05-13T18:51:04.129Z,100.00
2023-05-13T18:53:31.623Z,100.00
2023-05-13T18:56:00.503Z,100.00
2023-05-13T18:58:28.565Z,100.00
2023-05-13T19:00:56.156Z,100.00
2023-05-13T19:03:23.821Z,100.00
2023-05-13T19:05:52.118Z,100.00
2023-05-13T19:08:19.712Z,100.00
2023-05-13T19:10:47.248Z,100.00
2023-05-13T19:13:19.656Z,100.00
2023-05-13T19:15:47.203Z,100.00
2023-05-13T19:18:14.748Z,100.00
2023-05-13T19:20:43.498Z,100.00
2023-05-13T19:23:11.020Z,100.00
2023-05-13T19:25:42.034Z,100.00
2023-05-13T19:28:09.814Z,100.00
2023-05-13T19:30:38.828Z,100.00
2023-05-13T19:33:06.829Z,100.00
2023-05-13T19:35:35.032Z,100.00
2023-05-13T19:38:03.001Z,100.00
2023-05-13T19:40:30.533Z,100.00
2023-05-13T19:42:58.072Z,100.00
2023-05-13T19:45:25.819Z,100.00
2023-05-13T19:47:56.235Z,100.00
2023-05-13T19:50:24.081Z,100.00
2023-05-13T19:52:52.627Z,100.00
2023-05-13T19:55:20.334Z,100.00
2023-05-13T19:57:48.425Z,100.00
2023-05-13T20:00:16.833Z,100.00
2023-05-13T20:02:44.479Z,100.00
2023-05-13T20:05:13.362Z,100.00
2023-05-13T20:07:41.060Z,100.00
2023-05-13T20:10:10.047Z,100.00
2023-05-13T20:12:37.632Z,100.00
2023-05-13T20:15:06.642Z,100.00
2023-05-13T20:17:34.292Z,100.00
2023-05-13T20:20:01.994Z,100.00
2023-05-13T20:22:30.961Z,100.00
2023-05-13T20:24:58.938Z,100.00
2023-05-13T20:27:26.454Z,100.00
2023-05-13T20:29:55.607Z,100.00
2023-05-13T20:32:24.918Z,100.00
2023-05-13T20:34:54.301Z,100.00
2023-05-13T20:37:23.948Z,100.00
2023-05-13T20:39:54.262Z,100.00
2023-05-13T20:42:22.746Z,100.00
2023-05-13T20:44:50.698Z,100.00
2023-05-13T20:47:18.410Z,100.00
2023-05-13T20:49:46.471Z,100.00
2023-05-13T20:52:14.071Z,100.00
2023-05-13T20:54:42.177Z,100.00
2023-05-13T20:57:11.191Z,100.00
2023-05-13T20:59:38.691Z,100.00
2023-05-13T21:02:06.444Z,100.00
2023-05-13T21:04:33.925Z,100.00
2023-05-13T21:07:01.459Z,100.00
2023-05-13T21:09:29.004Z,100.00
2023-05-13T21:11:56.562Z,100.00
2023-05-13T21:14:25.548Z,100.00
2023-05-13T21:16:53.046Z,100.00
2023-05-13T21:19:21.911Z,100.00
2023-05-13T21:21:49.415Z,100.00
2023-05-13T21:24:18.012Z,100.00
2023-05-13T21:26:45.534Z,100.00
2023-05-13T21:29:13.097Z,100.00
2023-05-13T21:31:42.548Z,100.00
2023-05-13T21:34:10.173Z,100.00
2023-05-13T21:36:38.931Z,100.00
2023-05-13T21:39:06.784Z,100.00
2023-05-13T21:41:34.381Z,100.00
2023-05-13T21:44:01.896Z,100.00
2023-05-13T21:46:29.560Z,100.00
2023-05-13T21:48:59.621Z,100.00
2023-05-13T21:51:27.295Z,100.00
2023-05-13T21:53:54.806Z,100.00
2023-05-13T21:56:22.503Z,100.00
2023-05-13T21:58:50.567Z,100.00
2023-05-13T22:01:19.253Z,100.00
2023-05-13T22:03:46.799Z,100.00
2023-05-13T22:06:15.718Z,100.00
2023-05-13T22:08:43.270Z,100.00
2023-05-13T22:11:11.281Z,100.00
2023-05-13T22:13:39.080Z,100.00
2023-05-13T22:16:06.760Z,100.00
2023-05-13T22:21:01.747Z,100.00
2023-05-13T22:23:30.997Z,100.00
2023-05-13T22:25:58.494Z,100.00
2023-05-13T22:28:26.062Z,100.00
2023-05-13T22:30:53.728Z,100.00
2023-05-13T22:33:21.286Z,100.00
2023-05-13T22:35:48.817Z,100.00
2023-05-13T22:38:16.349Z,100.00
2023-05-13T22:40:45.221Z,100.00
2023-05-13T22:43:12.696Z,100.00
2023-05-13T22:45:40.521Z,100.00
2023-05-13T22:48:08.300Z,100.00
2023-05-13T22:50:35.858Z,100.00
2023-05-13T22:53:03.685Z,100.00
2023-05-13T22:55:31.203Z,100.00
2023-05-13T22:58:00.091Z,100.00
2023-05-13T23:00:27.655Z,100.00
2023-05-13T23:02:55.908Z,100.00
2023-05-13T23:05:23.456Z,100.00
2023-05-13T23:07:51.135Z,100.00
2023-05-13T23:10:18.743Z,100.00
2023-05-13T23:12:46.270Z,100.00
2023-05-13T23:15:16.063Z,100.00
2023-05-13T23:17:43.746Z,100.00
2023-05-13T23:20:12.123Z,100.00
2023-05-13T23:22:39.660Z,100.00
2023-05-13T23:25:09.067Z,100.00
2023-05-13T23:27:36.603Z,100.00
2023-05-13T23:30:04.630Z,100.00
2023-05-13T23:32:33.448Z,100.00
2023-05-13T23:35:01.317Z,100.00
2023-05-13T23:37:28.864Z,100.00
2023-05-13T23:39:56.339Z,100.00
2023-05-13T23:42:23.837Z,100.00
2023-05-13T23:44:51.957Z,100.00
2023-05-13T23:47:19.540Z,100.00
2023-05-13T23:49:48.442Z,100.00
2023-05-13T23:52:16.871Z,100.00
2023-05-13T23:54:44.391Z,100.00
2023-05-13T23:57:11.931Z,100.00
2023-05-13T23:59:40.195Z,100.00
